Lafayette Regional Airport
KLFT : now visible

Airfield :











YOU CAN JOIN US ON...

 
LOGIN :

Register | Disclaimer

   EN    FR    IT 

 









Legend :    VFR   Marginal VFR   IFR   Intensive IFR   Very Intensive IFR
Visi :
Ceiling :
>= 8 km
>= 3000ft
5 to 8 km
1000 to 3000 ft
1500m to 5 km
500 to 1000 ft
800 to 1500m
200 to 500 ft
< 800m
< 200 ft
Symbols :   Thunderstorms  Fog  Heavy snow  Heavy precipitations  Wind > 20 kt






- Airport Elevation : 42 ft
- IATA code : LFT


KLFT - Lafayette Regional

CURRENT METAR :
  • 202353Z 16008G16KT 130V190 10SM FEW025 29/23 A2982 RMK AO2 SLP098 T02890228 10328 20289 53003

EXPIRED METARs :
  • 202253Z 18012KT 10SM CLR 31/23 A2981 RMK AO2 SLP094 T03060228
  • 202153Z 17011G19KT 10SM CLR 31/22 A2981 RMK AO2 SLP094 T03110217

TAF KLFT
Valid from the 21 at 00:00 until the 22 at 00:00 UTC


202320Z 2100/2124 19012G18KT P6SM SCT025
FM210100 18008KT P6SM SKC
FM210800 16010G18KT P6SM BKN030
FM211500 18012KT P6SM SCT250
KZHU FIR / North America



MET'MAP, your aeronautical weather chart ! - Copyright ORBIFLY December 2007 - Disclaimer

ORBIFLY MET'MAP TEAM :

Programming & Development : Alexandra Zaïnal
Original concept : Baudouin d'Aumeries
Technical & hardware support : Manuel Goepfert
Assistance : Marc-Olivier Méhu

Contact : metmap@orbifly.com




SOURCES & CREDITS :

   NOAA       Earth
Advisory